sensor_id;sensor_type;location;lat;lon;timestamp;pressure;altitude;pressure_sealevel;temperature;humidity
32873;BME280;19224;52.462;16.898;2024-01-15T00:01:41;98057.50;;;2.98;100.00
32873;BME280;19224;52.462;16.898;2024-01-15T00:04:09;98046.06;;;2.87;100.00
32873;BME280;19224;52.462;16.898;2024-01-15T00:06:39;98049.28;;;2.85;100.00
32873;BME280;19224;52.462;16.898;2024-01-15T00:09:10;98039.91;;;2.78;100.00
32873;BME280;19224;52.462;16.898;2024-01-15T00:11:43;98041.53;;;2.81;100.00
32873;BME280;19224;52.462;16.898;2024-01-15T00:14:13;98038.09;;;2.70;100.00
32873;BME280;19224;52.462;16.898;2024-01-15T00:16:46;98026.98;;;2.71;100.00
32873;BME280;19224;52.462;16.898;2024-01-15T00:19:19;98019.72;;;2.74;100.00
32873;BME280;19224;52.462;16.898;2024-01-15T00:21:49;98021.12;;;2.64;100.00
32873;BME280;19224;52.462;16.898;2024-01-15T00:24:19;98020.27;;;2.55;100.00
32873;BME280;19224;52.462;16.898;2024-01-15T00:26:50;98019.88;;;2.63;100.00
32873;BME280;19224;52.462;16.898;2024-01-15T00:29:20;98021.66;;;2.62;100.00
32873;BME280;19224;52.462;16.898;2024-01-15T00:31:50;98008.55;;;2.59;100.00
32873;BME280;19224;52.462;16.898;2024-01-15T00:34:21;98001.52;;;2.50;100.00
32873;BME280;19224;52.462;16.898;2024-01-15T00:36:51;97995.09;;;2.45;100.00
32873;BME280;19224;52.462;16.898;2024-01-15T00:39:21;97993.28;;;2.46;100.00
32873;BME280;19224;52.462;16.898;2024-01-15T00:41:51;98000.41;;;2.45;100.00
32873;BME280;19224;52.462;16.898;2024-01-15T00:44:22;97995.33;;;2.49;100.00
32873;BME280;19224;52.462;16.898;2024-01-15T00:46:52;97980.72;;;2.49;100.00
32873;BME280;19224;52.462;16.898;2024-01-15T00:49:22;97979.23;;;2.52;100.00
32873;BME280;19224;52.462;16.898;2024-01-15T00:51:53;97977.52;;;2.51;100.00
32873;BME280;19224;52.462;16.898;2024-01-15T00:54:23;97991.11;;;2.45;100.00
32873;BME280;19224;52.462;16.898;2024-01-15T00:56:53;97976.67;;;2.59;100.00
32873;BME280;19224;52.462;16.898;2024-01-15T00:59:24;97977.84;;;2.54;100.00
32873;BME280;19224;52.462;16.898;2024-01-15T01:01:54;97969.09;;;2.52;100.00
32873;BME280;19224;52.462;16.898;2024-01-15T01:04:24;97967.05;;;2.57;100.00
32873;BME280;19224;52.462;16.898;2024-01-15T01:06:55;97963.94;;;2.57;100.00
32873;BME280;19224;52.462;16.898;2024-01-15T01:09:25;97964.62;;;2.52;100.00
32873;BME280;19224;52.462;16.898;2024-01-15T01:11:57;97963.61;;;2.55;100.00
32873;BME280;19224;52.462;16.898;2024-01-15T01:14:28;97964.00;;;2.56;100.00
32873;BME280;19224;52.462;16.898;2024-01-15T01:16:58;97954.55;;;2.50;100.00
32873;BME280;19224;52.462;16.898;2024-01-15T01:19:28;97960.34;;;2.58;100.00
32873;BME280;19224;52.462;16.898;2024-01-15T01:21:59;97943.31;;;2.54;100.00
32873;BME280;19224;52.462;16.898;2024-01-15T01:24:30;97945.19;;;2.52;100.00
32873;BME280;19224;52.462;16.898;2024-01-15T01:27:00;97941.27;;;2.50;100.00
32873;BME280;19224;52.462;16.898;2024-01-15T01:29:30;97926.82;;;2.56;100.00
32873;BME280;19224;52.462;16.898;2024-01-15T01:32:01;97928.70;;;2.54;100.00
32873;BME280;19224;52.462;16.898;2024-01-15T01:34:39;97929.24;;;2.60;100.00
32873;BME280;19224;52.462;16.898;2024-01-15T01:37:05;97920.96;;;2.49;100.00
32873;BME280;19224;52.462;16.898;2024-01-15T01:39:36;97922.84;;;2.47;100.00
32873;BME280;19224;52.462;16.898;2024-01-15T01:42:06;97908.78;;;2.45;100.00
32873;BME280;19224;52.462;16.898;2024-01-15T01:44:37;97898.16;;;2.45;100.00
32873;BME280;19224;52.462;16.898;2024-01-15T01:47:08;97893.08;;;2.49;100.00
32873;BME280;19224;52.462;16.898;2024-01-15T01:49:39;97889.64;;;2.47;100.00
32873;BME280;19224;52.462;16.898;2024-01-15T01:52:11;97892.67;;;2.57;100.00
32873;BME280;19224;52.462;16.898;2024-01-15T01:54:42;97891.97;;;2.53;100.00
32873;BME280;19224;52.462;16.898;2024-01-15T01:57:13;97881.44;;;2.60;100.00
32873;BME280;19224;52.462;16.898;2024-01-15T01:59:45;97885.33;;;2.53;100.00
32873;BME280;19224;52.462;16.898;2024-01-15T02:02:16;97883.94;;;2.55;100.00
32873;BME280;19224;52.462;16.898;2024-01-15T02:04:48;97872.86;;;2.55;100.00
32873;BME280;19224;52.462;16.898;2024-01-15T02:07:20;97873.31;;;2.55;100.00
32873;BME280;19224;52.462;16.898;2024-01-15T02:09:51;97866.34;;;2.61;100.00
32873;BME280;19224;52.462;16.898;2024-01-15T02:12:21;97855.88;;;2.58;100.00
32873;BME280;19224;52.462;16.898;2024-01-15T02:14:52;97865.90;;;2.53;100.00
32873;BME280;19224;52.462;16.898;2024-01-15T02:17:22;97856.50;;;2.54;100.00
32873;BME280;19224;52.462;16.898;2024-01-15T02:19:52;97853.70;;;2.57;100.00
32873;BME280;19224;52.462;16.898;2024-01-15T02:22:22;97848.30;;;2.59;100.00
32873;BME280;19224;52.462;16.898;2024-01-15T02:24:52;97845.19;;;2.59;100.00
32873;BME280;19224;52.462;16.898;2024-01-15T02:27:23;97840.81;;;2.58;100.00
32873;BME280;19224;52.462;16.898;2024-01-15T02:29:54;97847.12;;;2.64;100.00
32873;BME280;19224;52.462;16.898;2024-01-15T02:32:25;97842.75;;;2.63;100.00
32873;BME280;19224;52.462;16.898;2024-01-15T02:34:56;97833.06;;;2.62;100.00
32873;BME280;19224;52.462;16.898;2024-01-15T02:37:26;97832.67;;;2.61;100.00
32873;BME280;19224;52.462;16.898;2024-01-15T02:39:56;97829.95;;;2.63;100.00
32873;BME280;19224;52.462;16.898;2024-01-15T02:42:27;97831.28;;;2.63;100.00
32873;BME280;19224;52.462;16.898;2024-01-15T02:44:58;97819.47;;;2.68;100.00
32873;BME280;19224;52.462;16.898;2024-01-15T02:47:28;97808.05;;;2.66;100.00
32873;BME280;19224;52.462;16.898;2024-01-15T02:49:59;97801.95;;;2.64;100.00
32873;BME280;19224;52.462;16.898;2024-01-15T02:52:29;97795.70;;;2.65;100.00
32873;BME280;19224;52.462;16.898;2024-01-15T02:55:00;97784.06;;;2.68;100.00
32873;BME280;19224;52.462;16.898;2024-01-15T02:57:30;97787.98;;;2.69;100.00
32873;BME280;19224;52.462;16.898;2024-01-15T03:00:00;97783.68;;;2.67;100.00
32873;BME280;19224;52.462;16.898;2024-01-15T03:02:32;97779.69;;;2.67;100.00
32873;BME280;19224;52.462;16.898;2024-01-15T03:05:03;97778.92;;;2.65;100.00
32873;BME280;19224;52.462;16.898;2024-01-15T03:07:33;97778.68;;;2.69;100.00
32873;BME280;19224;52.462;16.898;2024-01-15T03:10:05;97764.28;;;2.73;100.00
32873;BME280;19224;52.462;16.898;2024-01-15T03:12:36;97767.81;;;2.65;100.00
32873;BME280;19224;52.462;16.898;2024-01-15T03:15:07;97762.36;;;2.68;100.00
32873;BME280;19224;52.462;16.898;2024-01-15T03:17:37;97760.41;;;2.63;100.00
32873;BME280;19224;52.462;16.898;2024-01-15T03:20:10;97760.41;;;2.63;100.00
32873;BME280;19224;52.462;16.898;2024-01-15T03:22:41;97747.78;;;2.51;100.00
32873;BME280;19224;52.462;16.898;2024-01-15T03:25:11;97747.78;;;2.51;100.00
32873;BME280;19224;52.462;16.898;2024-01-15T03:27:41;97747.33;;;2.43;100.00
32873;BME280;19224;52.462;16.898;2024-01-15T03:30:13;97749.77;;;2.39;100.00
32873;BME280;19224;52.462;16.898;2024-01-15T03:32:43;97750.39;;;2.36;100.00
32873;BME280;19224;52.462;16.898;2024-01-15T03:35:13;97745.08;;;2.36;100.00
32873;BME280;19224;52.462;16.898;2024-01-15T03:37:44;97743.52;;;2.40;100.00
32873;BME280;19224;52.462;16.898;2024-01-15T03:40:14;97736.66;;;2.36;100.00
32873;BME280;19224;52.462;16.898;2024-01-15T03:42:44;97737.29;;;2.33;100.00
32873;BME280;19224;52.462;16.898;2024-01-15T03:45:15;97731.56;;;2.40;100.00
32873;BME280;19224;52.462;16.898;2024-01-15T03:47:45;97736.41;;;2.32;100.00
32873;BME280;19224;52.462;16.898;2024-01-15T03:50:16;97735.33;;;2.36;100.00
32873;BME280;19224;52.462;16.898;2024-01-15T03:52:46;97732.19;;;2.37;100.00
32873;BME280;19224;52.462;16.898;2024-01-15T03:55:16;97735.81;;;2.28;100.00
32873;BME280;19224;52.462;16.898;2024-01-15T03:57:46;97741.52;;;2.28;100.00
32873;BME280;19224;52.462;16.898;2024-01-15T04:00:17;97737.53;;;2.28;100.00
32873;BME280;19224;52.462;16.898;2024-01-15T04:02:48;97734.48;;;2.28;100.00
32873;BME280;19224;52.462;16.898;2024-01-15T04:05:18;97737.45;;;2.30;100.00
32873;BME280;19224;52.462;16.898;2024-01-15T04:07:48;97734.03;;;2.28;100.00
32873;BME280;19224;52.462;16.898;2024-01-15T04:10:19;97734.31;;;2.30;100.00
32873;BME280;19224;52.462;16.898;2024-01-15T04:12:49;97737.91;;;2.29;100.00
32873;BME280;19224;52.462;16.898;2024-01-15T04:15:19;97724.25;;;2.28;100.00
32873;BME280;19224;52.462;16.898;2024-01-15T04:17:49;97728.23;;;2.28;100.00
32873;BME280;19224;52.462;16.898;2024-01-15T04:20:19;97726.73;;;2.31;100.00
32873;BME280;19224;52.462;16.898;2024-01-15T04:22:50;97735.64;;;2.30;100.00
32873;BME280;19224;52.462;16.898;2024-01-15T04:25:21;97735.36;;;2.28;100.00
32873;BME280;19224;52.462;16.898;2024-01-15T04:27:51;97728.63;;;2.29;100.00
32873;BME280;19224;52.462;16.898;2024-01-15T04:30:21;97718.10;;;2.28;100.00
32873;BME280;19224;52.462;16.898;2024-01-15T04:32:52;97733.55;;;2.28;100.00
32873;BME280;19224;52.462;16.898;2024-01-15T04:35:22;97720.34;;;2.35;100.00
32873;BME280;19224;52.462;16.898;2024-01-15T04:37:53;97707.21;;;2.32;100.00
32873;BME280;19224;52.462;16.898;2024-01-15T04:40:23;97717.30;;;2.34;100.00
32873;BME280;19224;52.462;16.898;2024-01-15T04:42:55;97712.80;;;2.43;100.00
32873;BME280;19224;52.462;16.898;2024-01-15T04:45:26;97718.19;;;2.50;100.00
32873;BME280;19224;52.462;16.898;2024-01-15T04:47:57;97729.92;;;2.38;100.00
32873;BME280;19224;52.462;16.898;2024-01-15T04:50:28;97720.63;;;2.46;100.00
32873;BME280;19224;52.462;16.898;2024-01-15T04:52:58;97721.30;;;2.58;100.00
32873;BME280;19224;52.462;16.898;2024-01-15T04:55:28;97712.83;;;2.59;100.00
32873;BME280;19224;52.462;16.898;2024-01-15T04:57:58;97708.67;;;2.46;100.00
32873;BME280;19224;52.462;16.898;2024-01-15T05:00:29;97715.11;;;2.58;100.00
32873;BME280;19224;52.462;16.898;2024-01-15T05:02:59;97712.94;;;2.57;100.00
32873;BME280;19224;52.462;16.898;2024-01-15T05:05:29;97712.96;;;2.73;100.00
32873;BME280;19224;52.462;16.898;2024-01-15T05:07:59;97719.83;;;2.92;100.00
32873;BME280;19224;52.462;16.898;2024-01-15T05:10:30;97734.36;;;2.70;100.00
32873;BME280;19224;52.462;16.898;2024-01-15T05:13:00;97714.69;;;2.65;100.00
32873;BME280;19224;52.462;16.898;2024-01-15T05:15:30;97710.70;;;2.65;100.00
32873;BME280;19224;52.462;16.898;2024-01-15T05:18:00;97724.44;;;2.49;100.00
32873;BME280;19224;52.462;16.898;2024-01-15T05:20:31;97732.02;;;2.48;100.00
32873;BME280;19224;52.462;16.898;2024-01-15T05:23:01;97716.44;;;2.58;100.00
32873;BME280;19224;52.462;16.898;2024-01-15T05:25:32;97714.83;;;2.55;100.00
32873;BME280;19224;52.462;16.898;2024-01-15T05:28:02;97708.15;;;2.64;100.00
32873;BME280;19224;52.462;16.898;2024-01-15T05:30:33;97712.48;;;2.49;100.00
32873;BME280;19224;52.462;16.898;2024-01-15T05:33:04;97722.20;;;2.42;100.00
32873;BME280;19224;52.462;16.898;2024-01-15T05:35:36;97706.30;;;2.49;100.00
32873;BME280;19224;52.462;16.898;2024-01-15T05:38:06;97721.95;;;2.46;100.00
32873;BME280;19224;52.462;16.898;2024-01-15T05:40:39;97717.09;;;2.46;100.00
32873;BME280;19224;52.462;16.898;2024-01-15T05:43:10;97717.87;;;2.48;100.00
32873;BME280;19224;52.462;16.898;2024-01-15T05:45:43;97722.27;;;2.40;100.00
32873;BME280;19224;52.462;16.898;2024-01-15T05:48:16;97721.67;;;2.35;100.00
32873;BME280;19224;52.462;16.898;2024-01-15T05:50:46;97704.45;;;2.42;100.00
32873;BME280;19224;52.462;16.898;2024-01-15T05:53:18;97699.42;;;2.53;100.00
32873;BME280;19224;52.462;16.898;2024-01-15T05:55:51;97707.35;;;2.46;100.00
32873;BME280;19224;52.462;16.898;2024-01-15T05:58:23;97700.33;;;2.45;100.00
32873;BME280;19224;52.462;16.898;2024-01-15T06:00:53;97705.95;;;2.39;100.00
32873;BME280;19224;52.462;16.898;2024-01-15T06:03:23;97695.55;;;2.43;100.00
32873;BME280;19224;52.462;16.898;2024-01-15T06:05:54;97696.48;;;2.51;100.00
32873;BME280;19224;52.462;16.898;2024-01-15T06:08:24;97699.00;;;2.45;100.00
32873;BME280;19224;52.462;16.898;2024-01-15T06:10:57;97686.70;;;2.51;100.00
32873;BME280;19224;52.462;16.898;2024-01-15T06:13:27;97690.95;;;2.62;100.00
32873;BME280;19224;52.462;16.898;2024-01-15T06:15:58;97689.73;;;2.52;100.00
32873;BME280;19224;52.462;16.898;2024-01-15T06:18:30;97688.80;;;2.53;100.00
32873;BME280;19224;52.462;16.898;2024-01-15T06:21:00;97685.93;;;2.49;100.00
32873;BME280;19224;52.462;16.898;2024-01-15T06:23:30;97671.89;;;2.47;100.00
32873;BME280;19224;52.462;16.898;2024-01-15T06:26:01;97680.34;;;2.38;100.00
32873;BME280;19224;52.462;16.898;2024-01-15T06:28:32;97681.18;;;2.47;100.00
32873;BME280;19224;52.462;16.898;2024-01-15T06:31:03;97687.12;;;2.44;100.00
32873;BME280;19224;52.462;16.898;2024-01-15T06:33:34;97680.73;;;2.39;100.00
32873;BME280;19224;52.462;16.898;2024-01-15T06:36:06;97693.83;;;2.42;100.00
32873;BME280;19224;52.462;16.898;2024-01-15T06:38:36;97694.80;;;2.57;100.00
32873;BME280;19224;52.462;16.898;2024-01-15T06:41:06;97688.86;;;2.60;100.00
32873;BME280;19224;52.462;16.898;2024-01-15T06:43:37;97678.14;;;2.46;100.00
32873;BME280;19224;52.462;16.898;2024-01-15T06:46:07;97693.72;;;2.52;100.00
32873;BME280;19224;52.462;16.898;2024-01-15T06:48:38;97673.11;;;2.49;100.00
32873;BME280;19224;52.462;16.898;2024-01-15T06:51:08;97671.89;;;2.47;100.00
32873;BME280;19224;52.462;16.898;2024-01-15T06:53:39;97676.70;;;2.56;100.00
32873;BME280;19224;52.462;16.898;2024-01-15T06:56:09;97691.63;;;2.50;100.00
32873;BME280;19224;52.462;16.898;2024-01-15T06:58:40;97695.22;;;2.49;100.00
32873;BME280;19224;52.462;16.898;2024-01-15T07:01:11;97687.64;;;2.50;100.00
32873;BME280;19224;52.462;16.898;2024-01-15T07:03:41;97695.22;;;2.49;100.00
32873;BME280;19224;52.462;16.898;2024-01-15T07:06:12;97678.42;;;2.49;100.00
32873;BME280;19224;52.462;16.898;2024-01-15T07:08:43;97708.13;;;2.48;100.00
32873;BME280;19224;52.462;16.898;2024-01-15T07:11:13;97696.55;;;2.49;100.00
32873;BME280;19224;52.462;16.898;2024-01-15T07:13:43;97710.60;;;2.51;100.00
32873;BME280;19224;52.462;16.898;2024-01-15T07:16:14;97709.06;;;2.47;100.00
32873;BME280;19224;52.462;16.898;2024-01-15T07:18:45;97710.84;;;2.55;100.00
32873;BME280;19224;52.462;16.898;2024-01-15T07:21:15;97714.97;;;2.52;100.00
32873;BME280;19224;52.462;16.898;2024-01-15T07:23:45;97713.36;;;2.50;100.00
32873;BME280;19224;52.462;16.898;2024-01-15T07:26:17;97710.14;;;2.52;100.00
32873;BME280;19224;52.462;16.898;2024-01-15T07:28:47;97721.99;;;2.53;100.00
32873;BME280;19224;52.462;16.898;2024-01-15T07:31:20;97725.91;;;2.55;100.00
32873;BME280;19224;52.462;16.898;2024-01-15T07:33:50;97715.59;;;2.57;100.00
32873;BME280;19224;52.462;16.898;2024-01-15T07:36:21;97707.07;;;2.59;100.00
32873;BME280;19224;52.462;16.898;2024-01-15T07:38:51;97707.63;;;2.57;100.00
32873;BME280;19224;52.462;16.898;2024-01-15T07:41:21;97709.55;;;2.62;100.00
32873;BME280;19224;52.462;16.898;2024-01-15T07:43:52;97707.45;;;2.60;100.00
32873;BME280;19224;52.462;16.898;2024-01-15T07:46:22;97712.27;;;2.61;100.00
32873;BME280;19224;52.462;16.898;2024-01-15T07:48:53;97724.50;;;2.56;100.00
32873;BME280;19224;52.462;16.898;2024-01-15T07:51:25;97703.29;;;2.63;100.00
32873;BME280;19224;52.462;16.898;2024-01-15T07:53:57;97715.25;;;2.63;100.00
32873;BME280;19224;52.462;16.898;2024-01-15T07:56:30;97725.80;;;2.65;100.00
32873;BME280;19224;52.462;16.898;2024-01-15T07:59:00;97682.42;;;2.64;100.00
32873;BME280;19224;52.462;16.898;2024-01-15T08:01:30;97690.63;;;2.68;100.00
32873;BME280;19224;52.462;16.898;2024-01-15T08:04:00;97706.01;;;2.70;100.00
32873;BME280;19224;52.462;16.898;2024-01-15T08:06:31;97701.54;;;2.71;100.00
32873;BME280;19224;52.462;16.898;2024-01-15T08:09:01;97695.88;;;2.61;100.00
32873;BME280;19224;52.462;16.898;2024-01-15T08:11:35;97681.84;;;2.59;100.00
32873;BME280;19224;52.462;16.898;2024-01-15T08:14:05;97709.97;;;2.55;100.00
32873;BME280;19224;52.462;16.898;2024-01-15T08:16:37;97686.52;;;2.54;100.00
32873;BME280;19224;52.462;16.898;2024-01-15T08:19:08;97693.66;;;2.54;100.00
32873;BME280;19224;52.462;16.898;2024-01-15T08:21:38;97682.67;;;2.60;100.00
32873;BME280;19224;52.462;16.898;2024-01-15T08:24:10;97682.02;;;2.56;100.00
32873;BME280;19224;52.462;16.898;2024-01-15T08:26:41;97688.09;;;2.58;100.00
32873;BME280;19224;52.462;16.898;2024-01-15T08:29:12;97686.84;;;2.57;100.00
32873;BME280;19224;52.462;16.898;2024-01-15T08:31:42;97679.61;;;2.52;100.00
32873;BME280;19224;52.462;16.898;2024-01-15T08:34:12;97670.27;;;2.60;100.00
32873;BME280;19224;52.462;16.898;2024-01-15T08:36:42;97673.09;;;2.57;100.00
32873;BME280;19224;52.462;16.898;2024-01-15T08:39:13;97672.37;;;2.78;100.00
32873;BME280;19224;52.462;16.898;2024-01-15T08:41:43;97677.11;;;2.64;100.00
32873;BME280;19224;52.462;16.898;2024-01-15T08:44:13;97673.86;;;2.59;100.00
32873;BME280;19224;52.462;16.898;2024-01-15T08:46:44;97683.93;;;2.61;100.00
32873;BME280;19224;52.462;16.898;2024-01-15T08:49:14;97705.88;;;2.65;100.00
32873;BME280;19224;52.462;16.898;2024-01-15T08:51:44;97686.20;;;2.60;100.00
32873;BME280;19224;52.462;16.898;2024-01-15T08:54:15;97673.61;;;2.64;100.00
32873;BME280;19224;52.462;16.898;2024-01-15T08:56:46;97677.29;;;2.61;100.00
32873;BME280;19224;52.462;16.898;2024-01-15T08:59:17;97669.32;;;2.61;100.00
32873;BME280;19224;52.462;16.898;2024-01-15T09:01:49;97662.23;;;2.62;100.00
32873;BME280;19224;52.462;16.898;2024-01-15T09:04:19;97661.17;;;2.64;100.00
32873;BME280;19224;52.462;16.898;2024-01-15T09:06:49;97654.77;;;2.68;100.00
32873;BME280;19224;52.462;16.898;2024-01-15T09:09:20;97664.31;;;2.64;100.00
32873;BME280;19224;52.462;16.898;2024-01-15T09:11:53;97657.05;;;2.67;100.00
32873;BME280;19224;52.462;16.898;2024-01-15T09:14:23;97667.23;;;2.59;100.00
32873;BME280;19224;52.462;16.898;2024-01-15T09:16:54;97671.73;;;2.81;100.00
32873;BME280;19224;52.462;16.898;2024-01-15T09:19:26;97665.14;;;2.73;100.00
32873;BME280;19224;52.462;16.898;2024-01-15T09:21:56;97675.08;;;2.69;100.00
32873;BME280;19224;52.462;16.898;2024-01-15T09:24:27;97682.80;;;2.74;100.00
32873;BME280;19224;52.462;16.898;2024-01-15T09:26:58;97674.03;;;2.87;100.00
32873;BME280;19224;52.462;16.898;2024-01-15T09:29:28;97682.19;;;2.84;100.00
32873;BME280;19224;52.462;16.898;2024-01-15T09:31:59;97684.70;;;2.63;100.00
32873;BME280;19224;52.462;16.898;2024-01-15T09:34:36;97695.39;;;2.70;100.00
32873;BME280;19224;52.462;16.898;2024-01-15T09:37:09;97695.16;;;2.51;100.00
32873;BME280;19224;52.462;16.898;2024-01-15T09:39:41;97694.11;;;2.53;100.00
32873;BME280;19224;52.462;16.898;2024-01-15T09:42:14;97709.62;;;2.61;100.00
32873;BME280;19224;52.462;16.898;2024-01-15T09:44:46;97708.36;;;2.68;100.00
32873;BME280;19224;52.462;16.898;2024-01-15T09:47:17;97701.96;;;2.63;100.00
32873;BME280;19224;52.462;16.898;2024-01-15T09:49:48;97708.05;;;2.65;100.00
32873;BME280;19224;52.462;16.898;2024-01-15T09:52:20;97686.52;;;2.63;100.00
32873;BME280;19224;52.462;16.898;2024-01-15T09:54:54;97692.81;;;2.84;100.00
32873;BME280;19224;52.462;16.898;2024-01-15T09:57:24;97684.59;;;2.89;100.00
32873;BME280;19224;52.462;16.898;2024-01-15T10:00:05;97681.41;;;2.82;100.00
32873;BME280;19224;52.462;16.898;2024-01-15T10:02:36;97694.76;;;2.89;100.00
32873;BME280;19224;52.462;16.898;2024-01-15T10:05:07;97683.71;;;3.04;100.00
32873;BME280;19224;52.462;16.898;2024-01-15T10:07:38;97677.94;;;2.89;100.00
32873;BME280;19224;52.462;16.898;2024-01-15T10:10:12;97677.99;;;2.96;100.00
32873;BME280;19224;52.462;16.898;2024-01-15T10:12:45;97683.56;;;2.91;100.00
32873;BME280;19224;52.462;16.898;2024-01-15T10:15:16;97689.95;;;2.96;100.00
32873;BME280;19224;52.462;16.898;2024-01-15T10:17:46;97693.45;;;2.96;100.00
32873;BME280;19224;52.462;16.898;2024-01-15T10:20:17;97696.98;;;2.97;100.00
32873;BME280;19224;52.462;16.898;2024-01-15T10:22:47;97685.53;;;3.03;100.00
32873;BME280;19224;52.462;16.898;2024-01-15T10:25:23;97702.30;;;2.97;100.00
32873;BME280;19224;52.462;16.898;2024-01-15T10:28:03;97692.81;;;3.00;100.00
32873;BME280;19224;52.462;16.898;2024-01-15T10:30:34;97703.44;;;2.84;100.00
32873;BME280;19224;52.462;16.898;2024-01-15T10:33:06;97705.41;;;2.96;100.00
32873;BME280;19224;52.462;16.898;2024-01-15T10:35:38;97687.70;;;2.88;100.00
32873;BME280;19224;52.462;16.898;2024-01-15T10:38:09;97690.48;;;3.09;100.00
32873;BME280;19224;52.462;16.898;2024-01-15T10:40:39;97693.94;;;3.11;100.00
32873;BME280;19224;52.462;16.898;2024-01-15T10:43:11;97696.85;;;2.91;100.00
32873;BME280;19224;52.462;16.898;2024-01-15T10:45:42;97690.97;;;2.93;100.00
32873;BME280;19224;52.462;16.898;2024-01-15T10:48:15;97705.58;;;2.78;100.00
32873;BME280;19224;52.462;16.898;2024-01-15T10:50:47;97684.91;;;2.98;100.00
32873;BME280;19224;52.462;16.898;2024-01-15T10:53:18;97694.91;;;3.02;100.00
32873;BME280;19224;52.462;16.898;2024-01-15T10:55:54;97682.75;;;3.20;100.00
32873;BME280;19224;52.462;16.898;2024-01-15T10:58:27;97678.88;;;3.03;100.00
32873;BME280;19224;52.462;16.898;2024-01-15T11:00:58;97690.66;;;3.06;100.00
32873;BME280;19224;52.462;16.898;2024-01-15T11:03:33;97681.28;;;3.08;100.00
32873;BME280;19224;52.462;16.898;2024-01-15T11:06:21;97696.55;;;3.04;100.00
32873;BME280;19224;52.462;16.898;2024-01-15T11:08:53;97681.92;;;3.04;100.00
32873;BME280;19224;52.462;16.898;2024-01-15T11:11:23;97699.02;;;3.07;100.00
32873;BME280;19224;52.462;16.898;2024-01-15T11:13:54;97689.66;;;3.16;100.00
32873;BME280;19224;52.462;16.898;2024-01-15T11:16:53;97696.05;;;3.20;100.00
32873;BME280;19224;52.462;16.898;2024-01-15T11:19:50;97688.44;;;3.14;100.00
32873;BME280;19224;52.462;16.898;2024-01-15T11:22:47;97678.05;;;3.25;100.00
32873;BME280;19224;52.462;16.898;2024-01-15T11:25:21;97686.71;;;3.29;100.00
32873;BME280;19224;52.462;16.898;2024-01-15T11:27:58;97672.91;;;3.22;100.00
32873;BME280;19224;52.462;16.898;2024-01-15T11:30:29;97675.63;;;3.36;100.00
32873;BME280;19224;52.462;16.898;2024-01-15T11:33:00;97681.52;;;3.41;100.00
32873;BME280;19224;52.462;16.898;2024-01-15T11:35:48;97673.92;;;3.42;100.00
32873;BME280;19224;52.462;16.898;2024-01-15T11:38:28;97686.57;;;3.46;100.00
32873;BME280;19224;52.462;16.898;2024-01-15T11:41:01;97664.80;;;3.39;100.00
32873;BME280;19224;52.462;16.898;2024-01-15T11:43:32;97682.73;;;3.36;100.00
32873;BME280;19224;52.462;16.898;2024-01-15T11:46:04;97694.95;;;3.24;100.00
32873;BME280;19224;52.462;16.898;2024-01-15T11:48:47;97666.80;;;3.20;100.00
32873;BME280;19224;52.462;16.898;2024-01-15T11:51:17;97668.14;;;3.05;100.00
32873;BME280;19224;52.462;16.898;2024-01-15T11:53:51;97665.80;;;3.07;100.00
32873;BME280;19224;52.462;16.898;2024-01-15T11:56:23;97664.69;;;3.11;100.00
32873;BME280;19224;52.462;16.898;2024-01-15T11:58:54;97657.34;;;3.30;100.00
32873;BME280;19224;52.462;16.898;2024-01-15T12:01:26;97656.72;;;3.11;100.00
32873;BME280;19224;52.462;16.898;2024-01-15T12:03:58;97652.50;;;3.07;100.00
32873;BME280;19224;52.462;16.898;2024-01-15T12:06:28;97650.29;;;3.00;100.00
32873;BME280;19224;52.462;16.898;2024-01-15T12:09:09;97648.45;;;2.93;100.00
32873;BME280;19224;52.462;16.898;2024-01-15T12:11:51;97646.05;;;3.04;100.00
32873;BME280;19224;52.462;16.898;2024-01-15T12:14:22;97660.08;;;3.22;100.00
32873;BME280;19224;52.462;16.898;2024-01-15T12:16:55;97683.91;;;3.46;100.00
32873;BME280;19224;52.462;16.898;2024-01-15T12:19:25;97642.83;;;3.65;100.00
32873;BME280;19224;52.462;16.898;2024-01-15T12:21:58;97636.94;;;3.60;100.00
32873;BME280;19224;52.462;16.898;2024-01-15T12:24:31;97616.03;;;3.61;100.00
32873;BME280;19224;52.462;16.898;2024-01-15T12:27:03;97636.56;;;3.59;100.00
32873;BME280;19224;52.462;16.898;2024-01-15T12:29:34;97638.19;;;3.62;100.00
32873;BME280;19224;52.462;16.898;2024-01-15T12:32:05;97620.78;;;3.56;100.00
32873;BME280;19224;52.462;16.898;2024-01-15T12:34:38;97633.41;;;3.60;100.00
32873;BME280;19224;52.462;16.898;2024-01-15T12:37:09;97627.70;;;3.59;100.00
32873;BME280;19224;52.462;16.898;2024-01-15T12:39:51;97615.86;;;3.71;100.00
32873;BME280;19224;52.462;16.898;2024-01-15T12:42:24;97621.98;;;3.94;100.00
32873;BME280;19224;52.462;16.898;2024-01-15T12:44:59;97621.80;;;3.90;100.00
32873;BME280;19224;52.462;16.898;2024-01-15T12:47:31;97618.75;;;3.89;100.00
32873;BME280;19224;52.462;16.898;2024-01-15T12:50:02;97614.34;;;3.88;100.00
32873;BME280;19224;52.462;16.898;2024-01-15T12:52:34;97625.95;;;3.80;100.00
32873;BME280;19224;52.462;16.898;2024-01-15T12:55:08;97618.05;;;3.79;100.00
32873;BME280;19224;52.462;16.898;2024-01-15T12:57:39;97665.11;;;3.85;100.00
32873;BME280;19224;52.462;16.898;2024-01-15T13:00:13;97649.51;;;3.72;100.00
32873;BME280;19224;52.462;16.898;2024-01-15T13:02:44;97645.33;;;3.68;100.00
32873;BME280;19224;52.462;16.898;2024-01-15T13:05:14;97623.45;;;3.56;100.00
32873;BME280;19224;52.462;16.898;2024-01-15T13:07:49;97626.65;;;3.47;100.00
32873;BME280;19224;52.462;16.898;2024-01-15T13:10:20;97635.39;;;3.27;100.00
32873;BME280;19224;52.462;16.898;2024-01-15T13:12:53;97624.59;;;3.30;100.00